createdAt,value
2022-12-18T00:00:51.316Z,86.57
2022-12-18T00:03:20.151Z,87.91
2022-12-18T00:04:17.473Z,88.02
2022-12-18T00:06:45.429Z,87.74
2022-12-18T00:07:43.447Z,87.84
2022-12-18T00:08:44.275Z,88.27
2022-12-18T00:11:09.478Z,88.34
2022-12-18T00:13:10.243Z,88.06
2022-12-18T00:14:09.577Z,87.95
2022-12-18T00:15:09.524Z,87.84
2022-12-18T00:16:09.605Z,88.06
2022-12-18T00:17:09.709Z,88.06
2022-12-18T00:18:09.718Z,88.20
2022-12-18T00:19:11.366Z,88.59
2022-12-18T00:20:09.698Z,88.95
2022-12-18T00:21:09.904Z,89.26
2022-12-18T00:23:36.156Z,89.12
2022-12-18T00:24:35.756Z,89.01
2022-12-18T00:25:35.876Z,89.12
2022-12-18T00:26:36.676Z,89.22
2022-12-18T00:27:35.903Z,88.90
2022-12-18T00:28:35.926Z,88.70
2022-12-18T00:29:35.963Z,88.31
2022-12-18T00:30:35.981Z,88.42
2022-12-18T00:31:36.053Z,88.20
2022-12-18T00:32:36.017Z,87.78
2022-12-18T00:33:36.401Z,87.88
2022-12-18T00:34:36.055Z,88.10
2022-12-18T00:35:36.083Z,87.78
2022-12-18T00:36:36.107Z,87.46
2022-12-18T00:37:36.123Z,87.04
2022-12-18T00:38:36.144Z,86.22
2022-12-18T00:39:36.184Z,86.12
2022-12-18T00:40:36.194Z,86.33
2022-12-18T00:41:36.204Z,86.69
2022-12-18T00:42:36.235Z,87.18
2022-12-18T00:43:36.554Z,87.29
2022-12-18T00:44:36.244Z,87.65
2022-12-18T00:45:36.313Z,88.13
2022-12-18T00:46:36.284Z,88.56
2022-12-18T00:47:36.305Z,88.67
2022-12-18T00:48:36.325Z,88.73
2022-12-18T00:49:36.366Z,88.42
2022-12-18T00:50:36.384Z,88.31
2022-12-18T00:51:36.417Z,88.31
2022-12-18T00:52:36.434Z,87.99
2022-12-18T00:53:36.771Z,87.78
2022-12-18T00:54:36.555Z,87.78
2022-12-18T00:55:36.577Z,88.20
2022-12-18T00:56:39.387Z,88.42
2022-12-18T00:57:36.619Z,88.63
2022-12-18T00:58:36.635Z,88.84
2022-12-18T00:59:36.676Z,89.01
2022-12-18T01:00:36.764Z,89.01
2022-12-18T01:01:36.815Z,89.12
2022-12-18T01:02:36.931Z,88.90
2022-12-18T01:03:37.255Z,88.73
2022-12-18T01:04:36.854Z,89.33
2022-12-18T01:05:36.883Z,89.22
2022-12-18T01:06:36.907Z,89.01
2022-12-18T01:07:36.927Z,88.70
2022-12-18T01:08:36.955Z,88.48
2022-12-18T01:09:36.989Z,88.27
2022-12-18T01:10:37.009Z,88.06
2022-12-18T01:11:37.039Z,88.37
2022-12-18T01:12:37.058Z,88.37
2022-12-18T01:13:37.474Z,88.44
2022-12-18T01:14:37.090Z,88.44
2022-12-18T01:15:37.126Z,88.65
2022-12-18T01:16:37.172Z,88.76
2022-12-18T01:17:37.195Z,88.44
2022-12-18T01:18:37.217Z,87.91
2022-12-18T01:19:37.265Z,87.59
2022-12-18T01:20:37.285Z,87.49
2022-12-18T01:21:37.316Z,87.59
2022-12-18T01:22:37.337Z,87.38
2022-12-18T01:23:37.782Z,87.49
2022-12-18T01:24:37.501Z,87.59
2022-12-18T01:25:37.455Z,87.38
2022-12-18T01:26:37.476Z,87.49
2022-12-18T01:27:37.496Z,87.55
2022-12-18T01:28:37.516Z,87.06
2022-12-18T01:29:37.567Z,86.96
2022-12-18T01:30:37.596Z,86.85
2022-12-18T01:31:37.683Z,86.54
2022-12-18T01:32:37.667Z,86.43
2022-12-18T01:33:38.065Z,86.43
2022-12-18T01:34:37.715Z,86.64
2022-12-18T01:35:37.747Z,86.85
2022-12-18T01:36:37.770Z,86.89
2022-12-18T01:37:37.788Z,87.38
2022-12-18T01:38:37.806Z,87.81
2022-12-18T01:39:37.829Z,88.23
2022-12-18T01:40:37.859Z,88.44
2022-12-18T01:41:37.877Z,88.51
2022-12-18T01:42:37.907Z,88.09
2022-12-18T01:43:38.374Z,88.29
2022-12-18T01:44:37.938Z,88.26
2022-12-18T01:45:38.098Z,87.73
2022-12-18T01:46:38.007Z,87.51
2022-12-18T01:47:38.037Z,87.09
2022-12-18T01:48:38.047Z,86.71
2022-12-18T01:49:38.067Z,86.71
2022-12-18T01:50:38.097Z,86.81
2022-12-18T01:51:38.117Z,87.66
2022-12-18T01:52:38.159Z,87.87
2022-12-18T01:53:38.509Z,88.04
2022-12-18T01:54:38.180Z,87.83
2022-12-18T01:55:38.199Z,87.51
2022-12-18T01:56:38.208Z,87.09
2022-12-18T01:57:38.257Z,87.62
2022-12-18T01:58:38.276Z,87.30
2022-12-18T01:59:38.328Z,87.09
2022-12-18T02:00:38.378Z,86.77
2022-12-18T02:01:38.499Z,87.30
2022-12-18T02:02:38.555Z,87.41
2022-12-18T02:03:38.922Z,87.09
2022-12-18T02:04:38.529Z,87.09
2022-12-18T02:05:38.569Z,86.77
2022-12-18T02:06:38.589Z,86.24
2022-12-18T02:07:38.614Z,86.35
2022-12-18T02:08:38.613Z,86.60
2022-12-18T02:09:38.629Z,86.56
2022-12-18T02:10:38.677Z,86.18
2022-12-18T02:11:38.690Z,85.96
2022-12-18T02:12:38.770Z,85.75
2022-12-18T02:13:39.218Z,85.43
2022-12-18T02:14:38.802Z,85.47
2022-12-18T02:15:38.818Z,85.47
2022-12-18T02:16:38.907Z,85.36
2022-12-18T02:19:04.847Z,85.09
2022-12-18T02:20:04.856Z,85.41
2022-12-18T02:28:14.725Z,84.91
2022-12-18T02:29:14.784Z,85.13
2022-12-18T02:30:14.826Z,85.06
2022-12-18T02:31:14.910Z,84.84
2022-12-18T02:32:14.856Z,84.74
2022-12-18T02:33:14.856Z,84.67
2022-12-18T02:34:14.865Z,84.56
2022-12-18T02:35:14.868Z,84.78
2022-12-18T02:36:14.856Z,85.03
2022-12-18T02:37:14.849Z,85.45
2022-12-18T02:38:14.840Z,85.45
2022-12-18T02:39:14.834Z,85.77
2022-12-18T02:40:14.858Z,86.09
2022-12-18T02:41:14.866Z,86.30
2022-12-18T02:42:14.846Z,86.52
2022-12-18T02:43:14.858Z,86.83
2022-12-18T02:44:14.845Z,87.32
2022-12-18T02:45:14.866Z,87.54
2022-12-18T02:46:14.909Z,87.43
2022-12-18T02:47:14.916Z,87.32
2022-12-18T02:48:14.918Z,87.12
2022-12-18T02:49:14.934Z,87.32
2022-12-18T02:50:14.946Z,87.32
2022-12-18T02:51:14.948Z,87.22
2022-12-18T02:52:14.963Z,87.22
2022-12-18T02:53:14.966Z,87.12
2022-12-18T02:54:14.998Z,87.12
2022-12-18T02:55:15.001Z,87.01
2022-12-18T02:56:14.988Z,87.01
2022-12-18T02:57:14.977Z,86.90
2022-12-18T02:58:14.987Z,86.79
2022-12-18T02:59:14.976Z,86.69
2022-12-18T03:00:14.997Z,87.12
2022-12-18T03:01:15.145Z,87.01
2022-12-18T03:02:15.165Z,87.01
2022-12-18T03:03:15.061Z,87.01
2022-12-18T03:04:15.042Z,87.71
2022-12-18T03:05:15.047Z,88.03
2022-12-18T03:06:15.056Z,88.45
2022-12-18T03:07:15.076Z,88.13
2022-12-18T03:08:15.079Z,88.84
2022-12-18T03:09:15.088Z,89.26
2022-12-18T03:10:15.088Z,88.90
2022-12-18T03:12:41.103Z,87.78
2022-12-18T03:13:41.579Z,87.35
2022-12-18T03:14:41.145Z,87.25
2022-12-18T03:15:41.145Z,87.25
2022-12-18T03:16:41.183Z,86.61
2022-12-18T03:17:41.192Z,86.61
2022-12-18T03:18:41.185Z,86.82
2022-12-18T03:19:41.187Z,86.76
2022-12-18T03:20:41.202Z,87.35
2022-12-18T03:21:41.205Z,87.60
2022-12-18T03:22:41.214Z,87.99
2022-12-18T03:23:41.719Z,88.31
2022-12-18T03:24:41.276Z,88.31
2022-12-18T03:25:41.275Z,88.42
2022-12-18T03:26:41.274Z,88.42
2022-12-18T03:27:41.276Z,88.52
2022-12-18T03:28:41.305Z,88.20
2022-12-18T03:29:41.314Z,87.99
2022-12-18T03:30:41.359Z,87.67
2022-12-18T03:31:41.359Z,87.18
2022-12-18T03:32:41.361Z,87.18
2022-12-18T03:33:41.848Z,87.07
2022-12-18T03:34:41.426Z,87.12
2022-12-18T03:35:41.421Z,87.32
2022-12-18T03:36:41.418Z,87.54
2022-12-18T03:37:41.415Z,87.54
2022-12-18T03:38:41.426Z,87.32
2022-12-18T03:39:41.434Z,87.01
2022-12-18T03:40:41.426Z,87.01
2022-12-18T03:41:41.428Z,86.62
2022-12-18T03:42:41.445Z,86.52
2022-12-18T03:43:41.937Z,86.24
2022-12-18T03:44:41.496Z,87.05
2022-12-18T03:45:41.542Z,87.58
2022-12-18T03:46:41.557Z,87.47
2022-12-18T03:47:41.557Z,87.26
2022-12-18T03:48:41.559Z,87.26
2022-12-18T03:49:41.587Z,86.94
2022-12-18T03:50:41.620Z,86.83
2022-12-18T03:51:41.614Z,86.52
2022-12-18T03:52:41.634Z,86.62
2022-12-18T03:53:42.318Z,86.62
2022-12-18T03:54:41.671Z,86.94
2022-12-18T03:55:41.678Z,87.26
2022-12-18T03:56:41.696Z,87.37
2022-12-18T03:57:41.698Z,87.47
2022-12-18T03:58:42.157Z,87.47
2022-12-18T03:59:41.737Z,87.68
2022-12-18T04:00:44.566Z,87.68
2022-12-18T04:01:44.279Z,87.65
2022-12-18T04:02:42.120Z,87.58
2022-12-18T04:03:42.476Z,87.54
2022-12-18T04:04:43.687Z,87.54
2022-12-18T04:05:42.063Z,87.75
2022-12-18T04:06:44.048Z,87.85
2022-12-18T04:07:42.181Z,87.85
2022-12-18T04:08:43.204Z,87.75
2022-12-18T04:09:42.371Z,87.65
2022-12-18T04:10:42.477Z,87.54
2022-12-18T04:11:42.467Z,87.43
2022-12-18T04:12:42.468Z,87.32
2022-12-18T04:13:42.799Z,87.54
2022-12-18T04:14:42.582Z,87.75
2022-12-18T04:15:42.619Z,88.39
2022-12-18T04:16:42.540Z,88.60
2022-12-18T04:17:42.552Z,88.60
2022-12-18T04:18:42.481Z,88.78
2022-12-18T04:19:42.683Z,88.45
2022-12-18T04:20:42.657Z,88.35
2022-12-18T04:21:42.708Z,88.13
2022-12-18T04:22:42.668Z,87.60
2022-12-18T04:23:43.554Z,87.29
2022-12-18T04:24:42.728Z,87.12
2022-12-18T04:25:42.840Z,87.07
2022-12-18T04:26:42.884Z,87.01
2022-12-18T04:27:43.742Z,86.79
2022-12-18T04:28:43.078Z,86.79
2022-12-18T04:29:42.999Z,86.94
2022-12-18T04:30:43.050Z,87.54
2022-12-18T04:31:43.042Z,88.28
2022-12-18T04:32:45.557Z,89.13
2022-12-18T04:33:43.307Z,89.41
2022-12-18T04:34:43.093Z,89.41
2022-12-18T04:35:43.140Z,89.26
2022-12-18T04:36:43.263Z,88.95
2022-12-18T04:37:43.210Z,88.73
2022-12-18T04:38:43.212Z,88.63
2022-12-18T04:39:43.230Z,88.63
2022-12-18T04:40:43.230Z,88.52
2022-12-18T04:41:43.289Z,88.17
2022-12-18T04:42:43.353Z,88.06
2022-12-18T04:43:43.485Z,87.88
2022-12-18T04:44:43.412Z,87.95
2022-12-18T04:45:43.417Z,87.88
2022-12-18T04:46:43.464Z,87.57
2022-12-18T04:47:43.724Z,87.32
2022-12-18T04:48:44.441Z,87.21
2022-12-18T04:49:43.695Z,86.72
2022-12-18T04:50:43.929Z,86.40
2022-12-18T04:51:43.534Z,86.40
2022-12-18T04:52:43.461Z,86.12
2022-12-18T04:53:43.759Z,86.44
2022-12-18T04:54:43.481Z,86.86
2022-12-18T04:55:43.491Z,87.39
2022-12-18T04:56:43.511Z,87.39
2022-12-18T04:57:43.532Z,87.50
2022-12-18T04:58:43.543Z,87.39
2022-12-18T05:01:09.545Z,88.20
2022-12-18T05:02:09.655Z,87.78
2022-12-18T05:03:09.542Z,87.78
2022-12-18T05:04:09.597Z,88.10
2022-12-18T05:05:09.562Z,87.88
2022-12-18T05:06:09.562Z,88.10
2022-12-18T05:07:09.572Z,88.90
2022-12-18T05:08:09.582Z,89.08
2022-12-18T05:09:09.591Z,88.87
2022-12-18T05:10:09.611Z,88.65
2022-12-18T05:11:09.620Z,88.51
2022-12-18T05:12:09.633Z,87.98
2022-12-18T05:13:09.642Z,87.55
2022-12-18T05:14:09.682Z,86.92
2022-12-18T05:15:09.692Z,87.13
2022-12-18T05:16:09.700Z,87.66
2022-12-18T05:17:09.692Z,88.09
2022-12-18T05:18:09.693Z,87.77
2022-12-18T05:19:09.731Z,87.45
2022-12-18T05:20:09.725Z,87.77
2022-12-18T05:21:09.735Z,87.94
2022-12-18T05:22:09.731Z,87.94
2022-12-18T05:23:09.774Z,87.94
2022-12-18T05:24:09.793Z,87.62
2022-12-18T05:25:09.793Z,87.09
2022-12-18T05:26:09.801Z,87.19
2022-12-18T05:27:09.815Z,86.99
2022-12-18T05:28:09.814Z,87.09
2022-12-18T05:29:09.834Z,87.09
2022-12-18T05:30:09.851Z,86.88
2022-12-18T05:31:09.893Z,87.09
2022-12-18T05:32:09.884Z,87.16
2022-12-18T05:33:09.875Z,86.99
2022-12-18T05:34:09.873Z,86.99
2022-12-18T05:35:09.883Z,86.99
2022-12-18T05:36:09.883Z,87.09
2022-12-18T05:37:09.874Z,87.19
2022-12-18T05:38:09.872Z,87.26
2022-12-18T05:39:09.863Z,87.05
2022-12-18T05:40:10.006Z,86.63
2022-12-18T05:41:09.934Z,86.46
2022-12-18T05:42:09.937Z,86.56
2022-12-18T05:43:09.934Z,86.66
2022-12-18T05:44:09.954Z,86.66
2022-12-18T05:45:09.955Z,86.73
2022-12-18T05:46:10.046Z,86.46
2022-12-18T05:47:10.019Z,86.73
2022-12-18T05:48:10.009Z,86.77
2022-12-18T05:49:10.014Z,86.99
2022-12-18T05:50:10.044Z,87.09
2022-12-18T05:51:10.054Z,87.26
2022-12-18T05:52:10.054Z,86.94
2022-12-18T05:53:10.075Z,86.73
2022-12-18T05:54:10.085Z,86.84
2022-12-18T05:55:10.125Z,87.09
2022-12-18T05:56:10.126Z,87.16
2022-12-18T05:57:10.135Z,87.05
2022-12-18T05:58:10.146Z,87.05
2022-12-18T05:59:10.165Z,86.84
2022-12-18T06:00:10.155Z,86.52
2022-12-18T06:01:10.157Z,86.41
2022-12-18T06:02:10.308Z,86.41
2022-12-18T06:03:10.373Z,86.03
2022-12-18T06:04:10.320Z,85.61
2022-12-18T06:05:10.227Z,85.61
2022-12-18T06:06:10.229Z,85.71
2022-12-18T06:07:10.215Z,85.75
2022-12-18T06:08:10.265Z,85.86
2022-12-18T06:09:10.285Z,85.75
2022-12-18T06:10:10.285Z,86.00
2022-12-18T06:11:10.286Z,86.85
2022-12-18T06:12:10.290Z,87.24
2022-12-18T06:13:10.300Z,87.02
2022-12-18T06:14:10.302Z,86.60
2022-12-18T06:15:10.318Z,86.39
2022-12-18T06:16:10.349Z,86.18
2022-12-18T06:17:10.437Z,86.18
2022-12-18T06:18:10.429Z,86.18
2022-12-18T06:19:10.439Z,86.07
2022-12-18T06:20:10.456Z,86.07
2022-12-18T06:21:10.466Z,86.49
2022-12-18T06:22:10.476Z,87.02
2022-12-18T06:23:10.486Z,87.02
2022-12-18T06:24:10.486Z,86.99
2022-12-18T06:25:10.486Z,86.66
2022-12-18T06:26:10.508Z,86.35
2022-12-18T06:27:10.497Z,86.39
2022-12-18T06:28:10.496Z,87.02
2022-12-18T06:29:10.506Z,87.30
2022-12-18T06:30:10.496Z,86.88
2022-12-18T06:31:10.586Z,86.56
2022-12-18T06:32:10.517Z,86.99
2022-12-18T06:33:10.528Z,87.48
2022-12-18T06:34:10.536Z,86.94
2022-12-18T06:35:10.537Z,86.52
2022-12-18T06:36:10.547Z,86.10
2022-12-18T06:37:10.547Z,86.03
2022-12-18T06:38:10.544Z,86.77
2022-12-18T06:39:10.549Z,86.94
2022-12-18T06:40:10.555Z,86.63
2022-12-18T06:41:10.538Z,86.03
2022-12-18T06:42:10.559Z,86.84
2022-12-18T06:43:10.550Z,87.05
2022-12-18T06:44:10.549Z,86.52
2022-12-18T06:45:10.601Z,85.68
2022-12-18T06:46:10.614Z,85.29
2022-12-18T06:47:10.619Z,85.93
2022-12-18T06:48:10.630Z,86.56
2022-12-18T06:49:10.649Z,86.84
2022-12-18T06:50:10.670Z,86.63
2022-12-18T06:51:10.669Z,86.21
2022-12-18T06:52:10.759Z,85.68
2022-12-18T06:53:10.759Z,85.93
2022-12-18T06:54:10.778Z,86.21
2022-12-18T06:55:10.772Z,86.03
2022-12-18T06:56:11.207Z,86.41
2022-12-18T06:57:10.779Z,85.89
2022-12-18T06:58:10.816Z,86.14
2022-12-18T06:59:10.849Z,86.73
2022-12-18T07:00:10.883Z,86.73
2022-12-18T07:01:12.101Z,86.63
2022-12-18T07:02:11.333Z,86.10
2022-12-18T07:03:16.818Z,86.52
2022-12-18T07:04:18.928Z,86.84
2022-12-18T07:05:11.335Z,87.01
2022-12-18T07:06:11.183Z,87.12
2022-12-18T07:07:11.156Z,87.23
2022-12-18T07:08:11.192Z,86.59
2022-12-18T07:09:11.112Z,86.16
2022-12-18T07:10:11.215Z,86.27
2022-12-18T07:11:11.194Z,86.23
2022-12-18T07:12:11.427Z,85.96
2022-12-18T07:13:12.072Z,86.27
2022-12-18T07:14:11.313Z,87.01
2022-12-18T07:15:11.265Z,87.08
2022-12-18T07:16:18.311Z,86.61
2022-12-18T07:17:11.490Z,85.88
2022-12-18T07:18:11.482Z,85.56
2022-12-18T07:19:12.279Z,85.24
2022-12-18T07:20:12.214Z,85.46
2022-12-18T07:21:11.659Z,85.56
2022-12-18T07:22:11.522Z,85.24
2022-12-18T07:23:12.291Z,85.03
2022-12-18T07:24:11.812Z,85.03
2022-12-18T07:25:12.595Z,84.82
2022-12-18T07:26:11.684Z,84.82
2022-12-18T07:27:11.539Z,84.92
2022-12-18T07:28:17.044Z,84.50
2022-12-18T07:29:11.644Z,84.50
2022-12-18T07:30:11.622Z,85.14
2022-12-18T07:31:11.612Z,85.35
2022-12-18T07:32:11.745Z,84.92
2022-12-18T07:33:11.693Z,84.50
2022-12-18T07:34:11.602Z,84.08
2022-12-18T07:35:11.799Z,84.08
2022-12-18T07:36:11.774Z,83.80
2022-12-18T07:37:12.447Z,84.01
2022-12-18T07:38:12.608Z,83.91
2022-12-18T07:39:11.934Z,83.91
2022-12-18T07:40:11.876Z,83.94
2022-12-18T07:41:11.911Z,84.26
2022-12-18T07:42:11.883Z,85.00
2022-12-18T07:43:12.111Z,85.42
2022-12-18T07:44:11.939Z,85.64
2022-12-18T07:45:12.025Z,86.38
2022-12-18T07:46:13.168Z,86.27
2022-12-18T07:47:12.472Z,86.38
2022-12-18T07:48:12.109Z,86.34
2022-12-18T07:49:12.263Z,86.23
2022-12-18T07:50:12.280Z,85.81
2022-12-18T07:51:12.444Z,85.60
2022-12-18T07:52:12.369Z,85.49
2022-12-18T07:53:13.259Z,85.49
2022-12-18T07:54:12.418Z,85.17
2022-12-18T07:55:13.188Z,84.96
2022-12-18T07:56:29.553Z,84.86
2022-12-18T07:57:27.423Z,84.86
2022-12-18T07:58:12.443Z,84.69
2022-12-18T07:59:12.689Z,84.89
2022-12-18T08:00:12.562Z,85.21
2022-12-18T08:01:12.560Z,85.74
2022-12-18T08:02:12.855Z,85.64
2022-12-18T08:03:12.829Z,85.64
2022-12-18T08:04:12.684Z,85.71
2022-12-18T08:05:12.685Z,85.71
2022-12-18T08:06:12.614Z,85.98
2022-12-18T08:07:12.674Z,85.63
2022-12-18T08:08:12.703Z,85.52
2022-12-18T08:09:13.445Z,85.94
2022-12-18T08:10:12.704Z,85.48
2022-12-18T08:11:12.692Z,85.38
2022-12-18T08:12:13.627Z,85.48
2022-12-18T08:13:12.806Z,85.23
2022-12-18T08:14:13.094Z,84.81
2022-12-18T08:15:12.935Z,84.56
2022-12-18T08:16:13.676Z,84.14
2022-12-18T08:18:40.051Z,84.24
2022-12-18T08:21:05.103Z,83.72
2022-12-18T08:22:05.863Z,83.72
2022-12-18T08:23:05.222Z,83.82
2022-12-18T08:24:06.038Z,83.61
2022-12-18T08:25:05.130Z,83.57
2022-12-18T08:26:05.479Z,83.82
2022-12-18T08:28:05.091Z,83.57
2022-12-18T08:29:10.421Z,83.57
2022-12-18T08:30:05.292Z,83.33
2022-12-18T08:31:05.418Z,83.11
2022-12-18T08:32:05.308Z,83.15
2022-12-18T08:33:05.271Z,83.22
2022-12-18T08:34:05.378Z,83.11
2022-12-18T08:35:05.543Z,82.90
2022-12-18T08:36:05.368Z,82.69
2022-12-18T08:37:05.404Z,82.69
2022-12-18T08:38:05.400Z,82.59
2022-12-18T08:39:05.622Z,82.55
2022-12-18T08:40:05.544Z,82.55
2022-12-18T08:41:05.709Z,82.23
2022-12-18T08:42:12.599Z,82.13
2022-12-18T08:43:05.616Z,81.98
2022-12-18T08:44:05.673Z,81.74
2022-12-18T08:45:05.706Z,81.21
2022-12-18T08:46:05.912Z,81.24
2022-12-18T08:47:05.795Z,81.10
2022-12-18T08:48:05.798Z,81.35
2022-12-18T08:49:06.748Z,81.21
2022-12-18T08:50:05.864Z,81.10
2022-12-18T08:51:05.961Z,81.10
2022-12-18T08:52:05.905Z,80.79
2022-12-18T08:53:05.948Z,80.79
2022-12-18T08:54:06.524Z,80.79
2022-12-18T08:55:05.957Z,80.75
2022-12-18T08:56:06.141Z,80.54
2022-12-18T08:57:06.150Z,80.54
2022-12-18T08:58:06.168Z,80.36
2022-12-18T08:59:06.097Z,80.47
2022-12-18T09:00:06.115Z,80.44
2022-12-18T09:01:06.553Z,80.36
2022-12-18T09:02:07.294Z,80.33
2022-12-18T09:03:06.337Z,80.12
2022-12-18T09:04:06.292Z,79.98
2022-12-18T09:05:06.368Z,79.77
2022-12-18T09:06:06.331Z,79.60
2022-12-18T09:07:06.616Z,79.91
2022-12-18T09:08:06.385Z,79.80
2022-12-18T09:09:06.546Z,79.80
2022-12-18T09:10:06.418Z,79.77
2022-12-18T09:11:06.534Z,79.56
2022-12-18T09:12:06.540Z,79.56
2022-12-18T09:13:07.315Z,79.24
2022-12-18T09:14:06.667Z,79.14
2022-12-18T09:15:06.698Z,79.00
2022-12-18T09:16:06.625Z,78.44
2022-12-18T09:17:06.753Z,78.05
2022-12-18T09:18:06.788Z,78.12
2022-12-18T09:19:06.743Z,77.94
2022-12-18T09:20:06.667Z,78.16
2022-12-18T09:21:07.037Z,78.47
2022-12-18T09:22:06.944Z,78.36
2022-12-18T09:23:06.789Z,78.26
2022-12-18T09:24:06.979Z,78.02
2022-12-18T09:25:06.995Z,77.91
2022-12-18T09:26:06.931Z,77.91
2022-12-18T09:27:07.006Z,77.76
2022-12-18T09:28:07.091Z,77.21
2022-12-18T09:29:06.993Z,76.93
2022-12-18T09:30:07.078Z,77.00
2022-12-18T09:31:07.046Z,76.61
2022-12-18T09:32:07.082Z,76.51
2022-12-18T09:33:07.127Z,76.96
2022-12-18T09:34:07.149Z,77.17
2022-12-18T09:35:07.187Z,76.82
2022-12-18T09:36:07.216Z,76.61
2022-12-18T09:37:07.249Z,76.47
2022-12-18T09:38:07.309Z,76.05
2022-12-18T09:39:08.875Z,75.98
2022-12-18T09:40:07.388Z,76.19
2022-12-18T09:41:07.437Z,75.95
2022-12-18T09:42:07.460Z,75.74
2022-12-18T09:43:08.342Z,76.15
2022-12-18T09:44:07.538Z,75.84
2022-12-18T09:45:07.621Z,75.84
2022-12-18T09:46:07.664Z,75.95
2022-12-18T09:47:07.757Z,75.70
2022-12-18T09:48:07.628Z,75.32
2022-12-18T09:49:08.552Z,75.42
2022-12-18T09:50:10.547Z,75.42
2022-12-18T09:51:07.849Z,75.42
2022-12-18T09:52:07.822Z,75.49
2022-12-18T09:53:08.005Z,75.07
2022-12-18T09:54:07.840Z,75.28
2022-12-18T09:55:08.033Z,74.86
2022-12-18T09:56:07.873Z,75.18
2022-12-18T09:57:07.990Z,75.07
2022-12-18T09:58:07.981Z,74.86
2022-12-18T09:59:08.051Z,74.97
2022-12-18T10:00:08.031Z,74.93
2022-12-18T10:01:08.141Z,74.93
2022-12-18T10:02:08.261Z,74.76
2022-12-18T10:03:08.307Z,75.04
2022-12-18T10:04:08.230Z,74.86
2022-12-18T10:05:08.273Z,75.14
2022-12-18T10:06:08.330Z,74.83
2022-12-18T10:07:09.381Z,74.73
2022-12-18T10:08:08.451Z,74.76
2022-12-18T10:09:08.531Z,74.65
2022-12-18T10:10:08.506Z,74.73
2022-12-18T10:11:08.571Z,74.30
2022-12-18T10:12:08.654Z,74.65
2022-12-18T10:13:08.621Z,74.62
2022-12-18T10:14:08.632Z,74.73
2022-12-18T10:15:08.664Z,74.44
2022-12-18T10:16:08.772Z,74.62
2022-12-18T10:17:08.764Z,74.73
2022-12-18T10:18:08.792Z,75.04
2022-12-18T10:19:08.823Z,75.11
2022-12-18T10:20:08.852Z,74.06
2022-12-18T10:21:08.883Z,74.06
2022-12-18T10:22:08.943Z,73.85
2022-12-18T10:23:08.924Z,73.57
2022-12-18T10:24:12.826Z,73.99
2022-12-18T10:25:09.003Z,74.09
2022-12-18T10:26:14.900Z,74.16
2022-12-18T10:27:09.054Z,73.46
2022-12-18T10:28:09.073Z,73.99
2022-12-18T10:29:09.114Z,73.78
2022-12-18T10:30:09.171Z,73.54
2022-12-18T10:31:09.328Z,73.25
2022-12-18T10:32:09.214Z,73.68
2022-12-18T10:33:09.287Z,73.54
2022-12-18T10:34:09.253Z,73.29
2022-12-18T10:35:09.294Z,72.98
2022-12-18T10:36:09.345Z,72.34
2022-12-18T10:37:09.416Z,72.34
2022-12-18T10:38:09.454Z,72.45
2022-12-18T10:39:09.456Z,72.52
2022-12-18T10:40:09.635Z,71.97
2022-12-18T10:41:09.520Z,71.69
2022-12-18T10:42:09.516Z,72.03
2022-12-18T10:43:09.495Z,72.11
2022-12-18T10:44:09.578Z,71.16
2022-12-18T10:45:09.557Z,71.48
2022-12-18T10:46:09.712Z,71.89
2022-12-18T10:47:11.971Z,71.55
2022-12-18T10:48:09.674Z,71.61
2022-12-18T10:49:09.665Z,72.11
2022-12-18T10:50:09.687Z,72.11
2022-12-18T10:51:12.811Z,71.62
2022-12-18T10:52:09.777Z,71.13
2022-12-18T10:53:09.757Z,71.23
2022-12-18T10:54:09.837Z,70.99
2022-12-18T10:55:09.847Z,69.99
2022-12-18T10:56:09.861Z,68.04
2022-12-18T10:57:09.867Z,67.31
2022-12-18T10:58:09.887Z,67.41
2022-12-18T10:59:09.940Z,67.49
2022-12-18T11:00:09.978Z,66.06
2022-12-18T11:01:10.018Z,66.41
2022-12-18T11:02:10.186Z,65.34
2022-12-18T11:03:10.115Z,65.16
2022-12-18T11:04:10.078Z,65.55
2022-12-18T11:05:10.070Z,65.68
2022-12-18T11:06:10.081Z,65.73
2022-12-18T11:07:10.120Z,64.92
2022-12-18T11:08:10.130Z,65.06
2022-12-18T11:09:13.325Z,66.55
2022-12-18T11:10:10.148Z,66.72
2022-12-18T11:11:10.217Z,66.00
2022-12-18T11:12:10.240Z,65.59
2022-12-18T11:13:10.310Z,64.18
2022-12-18T11:14:10.301Z,63.68
2022-12-18T11:15:10.311Z,63.51
2022-12-18T11:16:10.398Z,64.09
2022-12-18T11:17:25.328Z,64.84
2022-12-18T11:18:10.421Z,65.61
2022-12-18T11:19:10.442Z,66.20
2022-12-18T11:20:10.460Z,65.86
2022-12-18T11:21:10.478Z,65.34
2022-12-18T11:22:10.529Z,65.50
2022-12-18T11:23:10.540Z,67.03
2022-12-18T11:24:10.552Z,68.07
2022-12-18T11:26:10.611Z,67.86
2022-12-18T11:27:10.673Z,67.79
2022-12-18T11:28:10.658Z,68.73
2022-12-18T11:29:10.676Z,68.63
2022-12-18T11:30:10.714Z,68.73
2022-12-18T11:31:10.777Z,68.73
2022-12-18T11:32:10.773Z,69.07
2022-12-18T11:33:10.835Z,69.21
2022-12-18T11:35:10.923Z,69.74
2022-12-18T11:36:10.943Z,70.05
2022-12-18T11:37:10.940Z,69.95
2022-12-18T11:38:11.003Z,69.60
2022-12-18T11:39:11.074Z,69.32
2022-12-18T11:40:11.124Z,69.07
2022-12-18T11:41:11.154Z,69.07
2022-12-18T11:42:11.203Z,69.07
2022-12-18T11:43:11.243Z,69.18
2022-12-18T11:44:11.324Z,69.36
2022-12-18T11:45:11.285Z,68.73
2022-12-18T11:46:16.108Z,68.55
2022-12-18T11:47:11.395Z,68.66
2022-12-18T11:48:11.461Z,68.79
2022-12-18T11:49:11.529Z,69.42
2022-12-18T11:50:11.525Z,69.04
2022-12-18T11:51:11.545Z,68.63
2022-12-18T11:52:11.535Z,68.87
2022-12-18T11:53:11.579Z,68.87
2022-12-18T11:54:11.624Z,68.45
2022-12-18T11:55:11.683Z,68.87
2022-12-18T11:56:12.629Z,68.76
2022-12-18T11:57:11.746Z,69.29
2022-12-18T11:58:11.797Z,68.79
2022-12-18T11:59:11.830Z,69.21
2022-12-18T12:00:11.857Z,69.11
2022-12-18T12:01:11.885Z,69.21
2022-12-18T12:02:12.040Z,68.90
2022-12-18T12:03:11.952Z,69.29
2022-12-18T12:04:11.924Z,69.07
2022-12-18T12:05:11.957Z,68.76
2022-12-18T12:06:12.025Z,68.55
2022-12-18T12:07:12.058Z,68.94
2022-12-18T12:08:12.119Z,68.55
2022-12-18T12:09:12.117Z,68.66
2022-12-18T12:10:12.128Z,68.69
2022-12-18T12:11:12.144Z,68.87
2022-12-18T12:12:12.218Z,68.45
2022-12-18T12:13:12.288Z,68.45
2022-12-18T12:14:12.359Z,68.31
2022-12-18T12:15:12.307Z,68.00
2022-12-18T12:16:12.384Z,67.68
2022-12-18T12:17:12.379Z,68.00
2022-12-18T12:18:12.379Z,68.31
2022-12-18T12:19:12.440Z,67.79
2022-12-18T12:20:12.490Z,67.58
2022-12-18T12:21:12.560Z,67.37
2022-12-18T12:22:12.619Z,67.58
2022-12-18T12:23:12.645Z,67.50
2022-12-18T12:24:12.687Z,68.03
2022-12-18T12:25:12.723Z,68.45
2022-12-18T12:26:12.710Z,68.41
2022-12-18T12:27:12.761Z,67.90
2022-12-18T12:28:12.806Z,68.00
2022-12-18T12:29:15.479Z,67.68
2022-12-18T12:30:12.949Z,67.37
2022-12-18T12:31:12.872Z,67.58
2022-12-18T12:32:12.891Z,67.79
2022-12-18T12:33:12.910Z,68.03
2022-12-18T12:34:12.925Z,68.24
2022-12-18T12:35:12.922Z,68.10
2022-12-18T12:36:12.926Z,68.21
2022-12-18T12:37:12.965Z,68.31
2022-12-18T12:38:12.962Z,68.10
2022-12-18T12:39:12.993Z,68.00
2022-12-18T12:40:48.431Z,67.90
2022-12-18T12:41:13.003Z,68.10
2022-12-18T12:42:13.003Z,67.76
2022-12-18T12:43:13.013Z,67.76
2022-12-18T12:44:13.053Z,67.65
2022-12-18T12:45:13.065Z,67.76
2022-12-18T12:46:13.143Z,68.10
2022-12-18T12:47:13.054Z,67.79
2022-12-18T12:48:13.094Z,67.90
2022-12-18T12:49:13.127Z,68.21
2022-12-18T12:50:13.145Z,68.31
2022-12-18T12:51:13.143Z,67.90
2022-12-18T12:52:13.164Z,68.31
2022-12-18T12:53:13.224Z,67.97
2022-12-18T12:54:13.233Z,67.13
2022-12-18T12:55:14.904Z,67.24
2022-12-18T12:56:13.312Z,67.79
2022-12-18T12:57:13.315Z,67.79
2022-12-18T12:58:13.354Z,68.10
2022-12-18T12:59:13.352Z,67.97
2022-12-18T13:00:13.448Z,67.13
2022-12-18T13:01:16.191Z,67.13
2022-12-18T13:02:13.538Z,67.34
2022-12-18T13:03:13.466Z,67.44
2022-12-18T13:04:13.525Z,67.44
2022-12-18T13:05:13.556Z,67.55
2022-12-18T13:06:13.558Z,67.55
2022-12-18T13:07:13.597Z,67.44
2022-12-18T13:08:13.631Z,67.34
2022-12-18T13:09:13.667Z,67.55
2022-12-18T13:10:13.686Z,67.44
2022-12-18T13:11:13.726Z,67.55
2022-12-18T13:12:13.727Z,67.58
2022-12-18T13:13:17.088Z,67.76
2022-12-18T13:14:13.806Z,67.76
2022-12-18T13:15:13.847Z,67.55
2022-12-18T13:16:13.931Z,67.34
2022-12-18T13:17:13.948Z,67.41